Time;durP1;ratioP1;P1;durP2;ratioP2;P2;SDS_P1;SDS_P2;PMS_P1;PMS_P2;Temp;Humidity;BMP_temperature;BMP_pressure;BME280_temperature;BME280_humidity;BME280_pressure;Samples;Min_cycle;Max_cycle;Signal;HPM_P1;HPM_P2
2024/04/02 00:01:48;;;;;;;37.90;12.05;;;;;;;;;;5049321;28;20106;-74
2024/04/02 00:04:15;;;;;;;35.65;9.85;;;;;;;;;;5049111;28;20036;-80
2024/04/02 00:06:41;;;;;;;26.42;6.85;;;512.30;1587.20;;;;;;5049104;28;20033;-71
2024/04/02 00:09:08;;;;;;;13.90;4.75;;;512.10;1638.40;;;;;;5049071;28;20491;-83
2024/04/02 00:11:33;;;;;;;14.35;3.05;;;486.90;1740.80;;;;;;5049402;28;20032;-79
2024/04/02 00:13:59;;;;;;;13.57;3.08;;;486.50;1817.60;;;;;;5049400;28;20048;-81
2024/04/02 00:16:25;;;;;;;18.10;3.15;;;461.70;1843.20;;;;;;5049298;28;20490;-76
2024/04/02 00:18:51;;;;;;;13.77;2.88;;;461.50;1894.40;;;;;;5049147;28;20547;-80
2024/04/02 00:21:17;;;;;;;9.45;2.50;;;461.40;1920.00;;;;;;5051202;28;20455;-81
2024/04/02 00:23:43;;;;;;;10.45;2.72;;;461.20;1945.60;;;;;;5053317;28;20108;-80
2024/04/02 00:26:08;;;;;;;7.78;2.95;;;461.10;1945.60;;;;;;5053433;28;20032;-76
2024/04/02 00:28:34;;;;;;;8.73;2.60;;;461.00;1996.80;;;;;;5053345;28;20057;-76
2024/04/02 00:31:02;;;;;;;11.30;2.70;;;461.10;2022.40;;;;;;5053669;28;20400;-77
2024/04/02 00:33:31;;;;;;;11.20;2.60;;;436.10;2048.00;;;;;;5053465;28;20538;-72
2024/04/02 00:36:04;;;;;;;10.48;3.05;;;436.00;2099.20;;;;;;5054033;28;20070;-78
2024/04/02 00:38:31;;;;;;;6.53;3.05;;;435.80;2176.00;;;;;;5053211;28;20021;-76
2024/04/02 00:40:57;;;;;;;7.47;2.83;;;435.50;2304.00;;;;;;5043902;28;20048;-75
2024/04/02 00:43:23;;;;;;;8.18;3.10;;;435.30;2355.20;;;;;;5048473;28;20036;-83
2024/04/02 00:45:49;;;;;;;5.63;3.17;;;410.50;2355.20;;;;;;5053172;28;20148;-74
2024/04/02 00:48:17;;;;;;;8.20;2.70;;;410.30;2355.20;;;;;;5052762;28;20124;-82
2024/04/02 00:50:43;;;;;;;11.40;3.10;;;410.20;2355.20;;;;;;5053165;28;20126;-79
2024/04/02 00:53:11;;;;;;;14.93;3.80;;;410.00;2355.20;;;;;;5068213;28;20029;-75
2024/04/02 00:55:40;;;;;;;7.32;3.05;;;409.90;2355.20;;;;;;5052920;28;20024;-80
2024/04/02 00:58:06;;;;;;;13.82;4.13;;;409.70;2355.20;;;;;;5052351;28;20375;-80
2024/04/02 01:00:35;;;;;;;11.32;2.92;;;409.90;2355.20;;;;;;5051990;28;20494;-78
2024/04/02 01:03:05;;;;;;;11.45;2.88;;;409.90;2355.20;;;;;;5052526;28;20024;-75
2024/04/02 01:05:35;;;;;;;6.03;2.50;;;410.00;2355.20;;;;;;5052867;28;20027;-77
2024/04/02 01:08:03;;;;;;;9.18;2.40;;;410.20;2355.20;;;;;;5052404;28;20029;-72
2024/04/02 01:10:32;;;;;;;8.68;2.58;;;410.10;2355.20;;;;;;5052450;28;20049;-80
2024/04/02 01:13:01;;;;;;;4.45;2.58;;;410.20;2355.20;;;;;;5052413;28;20028;-81
2024/04/02 01:15:27;;;;;;;7.50;2.83;;;410.00;2355.20;;;;;;5052418;28;20029;-80
2024/04/02 01:17:53;;;;;;;8.90;2.28;;;410.20;2355.20;;;;;;5052306;28;20494;-72
2024/04/02 01:20:19;;;;;;;7.57;2.47;;;410.40;2355.20;;;;;;5052475;28;20025;-84
2024/04/02 01:22:45;;;;;;;5.75;1.83;;;410.50;2355.20;;;;;;5052054;28;20104;-79
2024/04/02 01:25:11;;;;;;;7.63;2.58;;;435.20;2355.20;;;;;;5052698;28;20049;-73
2024/04/02 01:27:36;;;;;;;7.40;2.35;;;435.20;2355.20;;;;;;5052393;28;20028;-81
2024/04/02 01:30:03;;;;;;;5.07;1.80;;;435.20;2355.20;;;;;;5051925;28;20487;-81
2024/04/02 01:32:29;;;;;;;4.60;1.65;;;435.40;2355.20;;;;;;5038279;28;20029;-83
2024/04/02 01:34:56;;;;;;;2.95;1.38;;;435.60;2355.20;;;;;;5051920;28;20045;-73
2024/04/02 01:37:22;;;;;;;4.15;1.30;;;435.70;2355.20;;;;;;5052247;28;20020;-74
2024/04/02 01:39:48;;;;;;;2.15;1.27;;;435.70;2355.20;;;;;;5052033;28;20053;-79
2024/04/02 01:42:14;;;;;;;3.00;1.13;;;435.80;2355.20;;;;;;5051894;28;20028;-81
2024/04/02 01:44:40;;;;;;;3.35;1.38;;;435.80;2355.20;;;;;;5051883;28;20021;-70
2024/04/02 01:47:05;;;;;;;3.15;1.70;;;435.90;2355.20;;;;;;5052077;28;20098;-83
2024/04/02 01:49:31;;;;;;;3.40;1.20;;;435.90;2355.20;;;;;;5051641;28;20476;-70
2024/04/02 01:51:57;;;;;;;5.32;1.38;;;435.90;2355.20;;;;;;5052113;28;20051;-80
2024/04/02 01:54:23;;;;;;;2.92;1.42;;;435.90;2355.20;;;;;;5051463;28;20495;-73
2024/04/02 01:56:49;;;;;;;3.25;1.60;;;435.90;2355.20;;;;;;5052124;28;20035;-82
2024/04/02 01:59:14;;;;;;;3.28;1.58;;;436.00;2355.20;;;;;;5051452;28;20025;-78
2024/04/02 02:01:40;;;;;;;3.00;1.20;;;436.00;2355.20;;;;;;5051331;28;20075;-84
2024/04/02 02:04:06;;;;;;;2.92;1.35;;;436.00;2355.20;;;;;;5051745;28;20021;-79
2024/04/02 02:06:32;;;;;;;5.13;1.40;;;436.10;2355.20;;;;;;5051519;28;20033;-83
2024/04/02 02:08:58;;;;;;;2.28;1.42;;;436.10;2329.60;;;;;;5051787;28;20387;-85
2024/04/02 02:11:24;;;;;;;4.75;1.83;;;460.80;2380.80;;;;;;5051536;28;20096;-80
2024/04/02 02:13:49;;;;;;;6.07;2.30;;;460.80;2380.80;;;;;;5050249;28;20024;-73
2024/04/02 02:16:15;;;;;;;7.10;2.00;;;436.10;2355.20;;;;;;5051101;28;20025;-83
2024/04/02 02:18:41;;;;;;;4.25;1.67;;;435.70;2355.20;;;;;;5051443;28;20108;-70
2024/04/02 02:21:07;;;;;;;8.52;2.10;;;435.90;2355.20;;;;;;5051190;28;20104;-86
2024/04/02 02:23:33;;;;;;;3.20;1.38;;;435.80;2355.20;;;;;;5051394;28;20080;-80
2024/04/02 02:25:59;;;;;;;3.58;1.70;;;435.80;2355.20;;;;;;5051110;28;20052;-71
2024/04/02 02:28:24;;;;;;;5.15;1.80;;;435.70;2355.20;;;;;;5051303;28;20033;-71
2024/04/02 02:30:50;;;;;;;3.28;1.48;;;435.70;2355.20;;;;;;5051276;28;20025;-83
2024/04/02 02:33:16;;;;;;;5.53;1.60;;;435.60;2355.20;;;;;;5051443;28;20025;-79
2024/04/02 02:35:42;;;;;;;7.60;1.95;;;435.60;2355.20;;;;;;5050840;28;20025;-83
2024/04/02 02:38:08;;;;;;;3.35;1.30;;;435.60;2355.20;;;;;;5051220;28;20032;-86
2024/04/02 02:40:34;;;;;;;3.38;1.42;;;435.60;2355.20;;;;;;5050709;28;20076;-74
2024/04/02 02:43:00;;;;;;;5.07;2.08;;;435.40;2355.20;;;;;;5051086;28;20028;-77
2024/04/02 02:45:25;;;;;;;2.83;1.50;;;435.40;2355.20;;;;;;5050324;28;20025;-72
2024/04/02 02:47:52;;;;;;;4.50;1.58;;;435.30;2355.20;;;;;;5050914;28;20033;-82
2024/04/02 02:50:19;;;;;;;3.17;1.00;;;435.30;2355.20;;;;;;5050794;28;20041;-80
2024/04/02 02:52:45;;;;;;;1.95;1.20;;;435.30;2355.20;;;;;;5050273;28;20025;-74
2024/04/02 02:55:11;;;;;;;1.40;0.77;;;410.50;2355.20;;;;;;5050655;28;20052;-84
2024/04/02 02:57:37;;;;;;;0.60;0.60;;;410.50;2355.20;;;;;;5050987;28;20086;-81
2024/04/02 03:00:07;;;;;;;3.00;0.52;;;410.50;2355.20;;;;;;5050281;28;20021;-79
2024/04/02 03:02:34;;;;;;;0.52;0.50;;;410.40;2278.40;;;;;;5050335;28;20028;-81
2024/04/02 03:05:00;;;;;;;1.80;0.95;;;410.30;2278.40;;;;;;5050053;28;20021;-83
2024/04/02 03:07:26;;;;;;;0.95;0.55;;;410.30;2278.40;;;;;;5050161;28;20033;-74
2024/04/02 03:09:54;;;;;;;0.70;0.50;;;410.20;2304.00;;;;;;5050164;28;20035;-70
2024/04/02 03:12:20;;;;;;;0.55;0.50;;;410.20;2278.40;;;;;;5050705;28;20379;-83
2024/04/02 03:14:45;;;;;;;2.22;0.40;;;410.20;2278.40;;;;;;5050081;28;20104;-72
2024/04/02 03:17:11;;;;;;;1.13;0.50;;;435.20;2252.80;;;;;;5050526;28;20025;-73
2024/04/02 03:19:37;;;;;;;0.65;0.32;;;410.20;2201.60;;;;;;5050351;28;20490;-83
2024/04/02 03:22:03;;;;;;;0.55;0.55;;;410.10;2176.00;;;;;;5049941;28;20041;-80
2024/04/02 03:24:29;;;;;;;0.43;0.43;;;410.00;2176.00;;;;;;5050172;28;20013;-82
2024/04/02 03:26:55;;;;;;;4.82;0.57;;;409.90;2201.60;;;;;;5049990;28;20044;-73
2024/04/02 03:29:21;;;;;;;0.80;0.30;;;409.90;2176.00;;;;;;5050027;28;20360;-78
2024/04/02 03:31:47;;;;;;;1.10;0.50;;;409.80;2176.00;;;;;;5050104;28;20025;-82
2024/04/02 03:34:13;;;;;;;5.05;0.90;;;409.70;2201.60;;;;;;5049667;28;20017;-79
2024/04/02 03:36:39;;;;;;;1.08;0.57;;;409.60;2227.20;;;;;;5050045;28;20113;-86
2024/04/02 03:39:04;;;;;;;1.90;0.68;;;409.70;2176.00;;;;;;5049646;28;20052;-79
2024/04/02 03:41:30;;;;;;;4.78;1.00;;;409.70;2150.40;;;;;;5050048;28;20100;-80
2024/04/02 03:43:56;;;;;;;1.00;0.77;;;409.90;2150.40;;;;;;5049433;28;20025;-74
2024/04/02 03:46:22;;;;;;;0.68;0.52;;;409.70;2150.40;;;;;;5049352;28;20033;-80
2024/04/02 03:48:51;;;;;;;0.20;0.20;;;409.60;2124.80;;;;;;5049469;28;20052;-74
2024/04/02 03:51:16;;;;;;;1.42;0.70;;;384.90;2099.20;;;;;;5049957;28;20471;-80
2024/04/02 03:53:42;;;;;;;0.30;0.30;;;384.90;2099.20;;;;;;5049375;28;20051;-74
2024/04/02 03:56:08;;;;;;;2.33;0.63;;;384.80;2048.00;;;;;;5049014;28;20061;-79
2024/04/02 03:58:34;;;;;;;0.90;0.68;;;384.70;2073.60;;;;;;5049748;28;20025;-82
2024/04/02 04:01:00;;;;;;;0.88;0.40;;;384.60;2099.20;;;;;;5049750;28;20044;-77
2024/04/02 04:03:27;;;;;;;3.33;0.82;;;384.60;2099.20;;;;;;5049628;28;20028;-79
2024/04/02 04:06:03;;;;;;;2.75;1.15;;;384.60;2099.20;;;;;;5049254;28;20475;-75
2024/04/02 04:08:33;;;;;;;1.30;0.75;;;384.70;2124.80;;;;;;5049622;28;20029;-74
2024/04/02 04:11:00;;;;;;;1.85;1.08;;;384.60;2099.20;;;;;;5049456;28;20269;-75
2024/04/02 04:13:26;;;;;;;2.08;1.58;;;384.50;2124.80;;;;;;5049461;28;20100;-77
2024/04/02 04:15:59;;;;;;;2.85;1.52;;;384.50;2124.80;;;;;;5048891;28;20028;-72
2024/04/02 04:18:27;;;;;;;1.92;1.40;;;384.30;2124.80;;;;;;5049463;28;20352;-81
2024/04/02 04:20:59;;;;;;;2.03;1.23;;;384.30;2176.00;;;;;;5048857;28;20025;-76
2024/04/02 04:23:26;;;;;;;2.60;0.93;;;384.30;2124.80;;;;;;5048029;28;20040;-78
2024/04/02 04:25:55;;;;;;;4.18;1.10;;;384.20;2099.20;;;;;;5049111;28;20029;-72
2024/04/02 04:28:21;;;;;;;1.15;0.82;;;384.10;2099.20;;;;;;5049574;28;20036;-80
2024/04/02 04:30:57;;;;;;;0.73;0.50;;;384.00;2073.60;;;;;;5049364;28;20112;-80
2024/04/02 04:33:24;;;;;;;1.15;0.70;;;384.20;2022.40;;;;;;5049610;28;20037;-76
2024/04/02 04:35:51;;;;;;;1.58;0.82;;;384.10;2099.20;;;;;;5049378;28;20029;-76
2024/04/02 04:38:17;;;;;;;1.27;0.80;;;384.10;2048.00;;;;;;5048985;28;20091;-77
2024/04/02 04:40:43;;;;;;;1.58;1.05;;;384.20;2048.00;;;;;;5048470;28;20041;-75
2024/04/02 04:43:11;;;;;;;1.35;0.88;;;384.20;2073.60;;;;;;5049189;28;20107;-82
2024/04/02 04:45:37;;;;;;;1.80;1.15;;;384.30;2022.40;;;;;;5049153;28;20021;-83
2024/04/02 04:48:08;;;;;;;2.50;0.88;;;384.30;1996.80;;;;;;5049172;28;20033;-72
2024/04/02 04:50:34;;;;;;;1.48;0.68;;;384.30;1971.20;;;;;;5043059;28;20613;-74
2024/04/02 04:53:01;;;;;;;0.77;0.77;;;384.30;1920.00;;;;;;5049440;28;20017;-80
2024/04/02 04:55:30;;;;;;;1.13;0.63;;;384.40;1894.40;;;;;;5049195;28;20021;-79
2024/04/02 04:57:57;;;;;;;3.28;1.98;;;384.40;1868.80;;;;;;5049915;28;20371;-77
2024/04/02 05:00:23;;;;;;;1.25;0.60;;;384.40;1843.20;;;;;;5049586;28;20086;-85
2024/04/02 05:02:49;;;;;;;2.08;1.02;;;384.50;1817.60;;;;;;5050397;28;20039;-79
2024/04/02 05:05:15;;;;;;;2.65;1.02;;;384.50;1817.60;;;;;;5049936;28;20036;-76
2024/04/02 05:07:57;;;;;;;1.05;0.60;;;384.60;1792.00;;;;;;5051799;28;20036;-71
2024/04/02 05:10:25;;;;;;;0.52;0.40;;;384.70;1792.00;;;;;;5052862;28;20036;-78
2024/04/02 05:12:51;;;;;;;1.42;1.00;;;409.60;1817.60;;;;;;5052392;28;20025;-72
2024/04/02 05:15:17;;;;;;;1.60;0.90;;;409.70;1792.00;;;;;;5052715;28;20025;-72
2024/04/02 05:17:43;;;;;;;2.00;0.75;;;410.20;1766.40;;;;;;5052598;28;20041;-76
2024/04/02 05:20:09;;;;;;;1.55;0.90;;;410.40;1766.40;;;;;;5052840;28;20432;-74
2024/04/02 05:22:36;;;;;;;1.65;0.75;;;435.30;1766.40;;;;;;5051966;28;20059;-73
2024/04/02 05:25:02;;;;;;;1.80;0.70;;;435.40;1740.80;;;;;;5052542;28;20020;-77
2024/04/02 05:27:29;;;;;;;2.47;1.15;;;435.30;1740.80;;;;;;5052025;28;20025;-76
2024/04/02 05:29:56;;;;;;;5.20;0.90;;;410.50;1740.80;;;;;;5052174;28;20052;-73
2024/04/02 05:32:22;;;;;;;1.92;1.10;;;435.20;1740.80;;;;;;5051918;28;20013;-76
2024/04/02 05:34:47;;;;;;;1.35;0.90;;;435.50;1715.20;;;;;;5067398;28;20029;-75
2024/04/02 05:37:13;;;;;;;5.43;1.15;;;435.40;1715.20;;;;;;5051670;28;20032;-76
2024/04/02 05:39:39;;;;;;;2.42;1.23;;;435.80;1689.60;;;;;;5051911;28;20060;-73
2024/04/02 05:42:10;;;;;;;3.28;1.25;;;461.70;1638.40;;;;;;5046376;28;20124;-79
2024/04/02 05:44:36;;;;;;;2.95;1.90;;;486.60;1587.20;;;;;;5045296;28;20025;-80
2024/04/02 05:47:02;;;;;;;3.63;1.67;;;512.80;1536.00;;;;;;5051872;28;20105;-80
2024/04/02 05:49:28;;;;;;;2.10;1.40;;;512.90;1484.80;;;;;;5052315;28;20470;-82
2024/04/02 05:51:54;;;;;;;1.85;1.30;;;512.50;1484.80;;;;;;5051859;28;20569;-84
2024/04/02 05:54:19;;;;;;;3.65;1.45;;;512.70;1484.80;;;;;;5052073;28;20483;-77
2024/04/02 05:56:45;;;;;;;4.20;1.80;;;487.30;1536.00;;;;;;5043036;28;20029;-71
2024/04/02 05:59:11;;;;;;;2.30;1.02;;;512.50;1484.80;;;;;;5043800;28;20040;-72
2024/04/02 06:01:37;;;;;;;4.13;1.35;;;487.20;1536.00;;;;;;5037733;28;20025;-70
2024/04/02 06:04:03;;;;;;;4.35;1.15;;;487.20;1536.00;;;;;;5050438;28;20025;-70
2024/04/02 06:06:29;;;;;;;2.97;2.13;;;512.80;1510.40;;;;;;5052214;28;20029;-72
2024/04/02 06:08:56;;;;;;;6.03;2.30;;;564.00;1408.00;;;;;;5050638;28;20029;-73
2024/04/02 06:11:21;;;;;;;3.47;2.47;;;615.00;1280.00;;;;;;5050927;28;20546;-78
2024/04/02 06:13:47;;;;;;;3.40;3.10;;;666.10;1254.40;;;;;;5051316;28;20095;-70
2024/04/02 06:16:13;;;;;;;3.85;2.92;;;691.70;1203.20;;;;;;5051586;28;20051;-77
2024/04/02 06:18:39;;;;;;;3.10;2.55;;;717.40;1152.00;;;;;;5048831;28;20033;-73
2024/04/02 06:21:05;;;;;;;4.65;3.03;;;717.50;1152.00;;;;;;5048568;28;20032;-69
2024/04/02 06:23:30;;;;;;;3.65;3.10;;;743.00;1100.80;;;;;;5044305;28;20483;-79
2024/04/02 06:25:56;;;;;;;3.63;3.22;;;743.00;1126.40;;;;;;5045825;28;20052;-82
2024/04/02 06:28:25;;;;;;;3.75;3.30;;;768.20;1100.80;;;;;;5037653;28;20426;-81
2024/04/02 06:30:51;;;;;;;5.00;3.20;;;768.50;1075.20;;;;;;5059780;28;20020;-82
2024/04/02 06:33:17;;;;;;;3.50;2.88;;;793.70;1075.20;;;;;;5050276;28;20387;-82
2024/04/02 06:35:43;;;;;;;3.72;3.20;;;768.40;1075.20;;;;;;5043134;28;20030;-82
2024/04/02 06:38:09;;;;;;;4.32;3.90;;;794.20;1049.60;;;;;;5045849;28;20070;-84
2024/04/02 06:40:36;;;;;;;3.58;3.28;;;794.40;1049.60;;;;;;5047780;28;20085;-80
2024/04/02 06:43:01;;;;;;;4.18;3.38;;;768.90;1024.00;;;;;;5041630;28;20029;-81
2024/04/02 06:45:30;;;;;;;4.55;3.45;;;793.80;1049.60;;;;;;5038763;28;20017;-80
2024/04/02 06:47:57;;;;;;;4.10;3.80;;;820.00;998.40;;;;;;5050068;28;20029;-82
2024/04/02 06:50:24;;;;;;;4.05;3.55;;;844.90;998.40;;;;;;5045794;28;20020;-80
2024/04/02 06:52:50;;;;;;;5.57;4.00;;;819.80;998.40;;;;;;5050201;28;20072;-82
2024/04/02 06:55:16;;;;;;;4.65;3.40;;;844.90;972.80;;;;;;5050246;28;20482;-81
2024/04/02 06:57:42;;;;;;;4.50;3.95;;;820.10;972.80;;;;;;5042959;28;20025;-79
2024/04/02 07:00:09;;;;;;;4.45;4.05;;;870.50;972.80;;;;;;5049732;28;20348;-77
2024/04/02 07:02:35;;;;;;;3.75;3.45;;;870.70;947.20;;;;;;5043267;28;20048;-83
2024/04/02 07:05:01;;;;;;;4.18;3.80;;;870.70;947.20;;;;;;5044065;28;20048;-81
2024/04/02 07:07:50;;;;;;;4.57;4.18;;;870.60;921.60;;;;;;5045235;28;20030;-85
2024/04/02 07:10:22;;;;;;;3.58;2.88;;;871.10;896.00;;;;;;5038029;28;20033;-79
2024/04/02 07:12:48;;;;;;;2.85;2.03;;;870.70;921.60;;;;;;5042261;28;20050;-82
2024/04/02 07:15:14;;;;;;;3.28;1.88;;;794.20;972.80;;;;;;5045130;28;20036;-85
2024/04/02 07:17:40;;;;;;;2.53;1.55;;;717.60;1049.60;;;;;;5030560;28;20515;-84
2024/04/02 07:20:06;;;;;;;3.20;1.60;;;691.20;1100.80;;;;;;5045603;28;20140;-79
2024/04/02 07:22:32;;;;;;;2.17;1.40;;;640.20;1126.40;;;;;;5043130;28;20541;-79
2024/04/02 07:24:58;;;;;;;2.88;1.48;;;614.50;1203.20;;;;;;5045335;28;20112;-85
2024/04/02 07:27:24;;;;;;;4.15;1.60;;;589.30;1228.80;;;;;;5030471;28;20136;-82
2024/04/02 07:29:49;;;;;;;10.25;2.20;;;589.00;1280.00;;;;;;5047432;28;20025;-81
2024/04/02 07:32:15;;;;;;;2.88;2.22;;;588.90;1280.00;;;;;;5032598;28;20466;-81
2024/04/02 07:34:44;;;;;;;2.53;1.90;;;665.90;1152.00;;;;;;5037200;28;20537;-77
2024/04/02 07:37:11;;;;;;;4.25;1.88;;;640.20;1126.40;;;;;;5039563;28;20478;-79
2024/04/02 07:39:37;;;;;;;3.60;2.60;;;614.60;1177.60;;;;;;5047043;28;20049;-85
2024/04/02 07:42:03;;;;;;;3.78;2.42;;;666.30;1126.40;;;;;;5047511;28;20437;-85
2024/04/02 07:44:29;;;;;;;3.95;1.67;;;691.70;1100.80;;;;;;5046711;28;20496;-84
2024/04/02 07:46:55;;;;;;;2.35;1.45;;;640.70;1126.40;;;;;;5039766;28;20521;-85
2024/04/02 07:49:21;;;;;;;5.93;2.03;;;614.60;1228.80;;;;;;5049692;28;20052;-85
2024/04/02 07:51:47;;;;;;;5.63;2.40;;;;;;;;;;5037368;28;20475;-83
2024/04/02 07:54:14;;;;;;;3.30;1.70;;;;;;;;;;5044225;28;20025;-78
2024/04/02 07:56:40;;;;;;;2.33;1.40;;;589.30;1254.40;;;;;;5039572;28;20083;-78
2024/04/02 07:59:06;;;;;;;2.35;1.40;;;589.10;1254.40;;;;;;5040438;28;20029;-83
2024/04/02 08:01:32;;;;;;;3.47;2.00;;;589.30;1280.00;;;;;;5048993;28;20032;-80
2024/04/02 08:03:57;;;;;;;4.00;2.20;;;614.60;1254.40;;;;;;5049190;28;20082;-78
2024/04/02 08:06:23;;;;;;;4.05;2.65;;;640.90;1152.00;;;;;;5048111;28;20063;-81
2024/04/02 08:08:49;;;;;;;4.63;2.70;;;716.80;1152.00;;;;;;5049048;28;20031;-82
2024/04/02 08:11:15;;;;;;;4.65;3.00;;;768.60;1075.20;;;;;;5048436;28;20049;-79
2024/04/02 08:13:41;;;;;;;4.55;3.70;;;768.90;1049.60;;;;;;5046937;28;20130;-80
2024/04/02 08:16:07;;;;;;;3.88;3.55;;;820.00;998.40;;;;;;5045991;28;20458;-78
2024/04/02 08:18:33;;;;;;;4.85;2.70;;;870.50;972.80;;;;;;5043680;28;20359;-85
2024/04/02 08:20:59;;;;;;;6.03;3.50;;;794.40;1126.40;;;;;;5042302;28;20052;-83
2024/04/02 08:23:25;;;;;;;3.15;2.45;;;768.50;1203.20;;;;;;5042881;28;20041;-83
2024/04/02 08:25:50;;;;;;;4.93;3.47;;;819.60;1152.00;;;;;;5046173;28;20029;-82
2024/04/02 08:28:18;;;;;;;5.32;2.80;;;794.20;1203.20;;;;;;5046371;28;20425;-80
2024/04/02 08:30:45;;;;;;;4.88;3.70;;;717.50;1254.40;;;;;;5048707;28;20024;-82
2024/04/02 08:33:11;;;;;;;4.35;3.33;;;768.10;1254.40;;;;;;5048921;28;20025;-79
2024/04/02 08:35:36;;;;;;;5.05;2.20;;;717.50;1331.20;;;;;;5048259;28;20017;-81
2024/04/02 08:38:02;;;;;;;3.47;2.92;;;691.90;1331.20;;;;;;5042102;28;20037;-79
2024/04/02 08:40:32;;;;;;;5.40;2.90;;;742.60;1331.20;;;;;;5048257;28;20045;-80
2024/04/02 08:43:08;;;;;;;4.50;2.70;;;691.60;1382.40;;;;;;5051142;28;20029;-81
2024/04/02 08:45:37;;;;;;;3.95;2.60;;;666.40;1408.00;;;;;;5052162;28;20067;-83
2024/04/02 08:48:04;;;;;;;3.78;2.33;;;666.40;1408.00;;;;;;5052122;28;20029;-79
2024/04/02 08:50:30;;;;;;;3.90;3.03;;;666.50;1382.40;;;;;;5052081;28;20047;-83
2024/04/02 08:52:56;;;;;;;3.03;1.75;;;691.60;1382.40;;;;;;5052024;28;20432;-80
2024/04/02 08:55:22;;;;;;;4.45;2.70;;;666.10;1433.60;;;;;;5051984;28;20092;-83
2024/04/02 08:57:51;;;;;;;2.35;1.88;;;640.20;1484.80;;;;;;5044532;28;20540;-80
2024/04/02 09:00:18;;;;;;;3.40;1.92;;;614.80;1510.40;;;;;;5051584;28;20021;-81
2024/04/02 09:02:46;;;;;;;4.97;2.28;;;589.50;1587.20;;;;;;5042140;28;20025;-83
2024/04/02 09:05:13;;;;;;;3.42;1.70;;;589.60;1561.60;;;;;;5051875;28;20475;-83
2024/04/02 09:07:39;;;;;;;4.55;2.00;;;589.60;1587.20;;;;;;5051936;28;20108;-84
2024/04/02 09:10:05;;;;;;;3.92;1.60;;;564.10;1664.00;;;;;;5051901;28;20036;-82
2024/04/02 09:12:31;;;;;;;3.40;1.70;;;588.90;1638.40;;;;;;5052313;28;20037;-84
2024/04/02 09:14:58;;;;;;;2.75;1.48;;;589.10;1612.80;;;;;;5052066;28;20365;-84
2024/04/02 09:17:25;;;;;;;2.10;1.27;;;564.10;1664.00;;;;;;5051134;28;20025;-81
2024/04/02 09:19:51;;;;;;;4.88;2.15;;;563.50;1689.60;;;;;;5051558;28;20061;-81
2024/04/02 09:22:17;;;;;;;5.78;1.90;;;563.90;1715.20;;;;;;5042720;28;20051;-84
2024/04/02 09:24:43;;;;;;;3.47;1.63;;;563.60;1689.60;;;;;;5050776;28;20107;-80
2024/04/02 09:27:13;;;;;;;2.65;1.70;;;563.30;1689.60;;;;;;5033255;28;20093;-78
2024/04/02 09:29:39;;;;;;;6.90;1.60;;;538.30;1689.60;;;;;;5039600;28;20017;-81
2024/04/02 09:32:09;;;;;;;3.92;1.77;;;563.30;1715.20;;;;;;5053810;28;20394;-77
2024/04/02 09:34:35;;;;;;;3.47;1.63;;;563.20;1689.60;;;;;;5055049;28;20394;-79
2024/04/02 09:37:09;;;;;;;2.22;1.42;;;538.50;1664.00;;;;;;5046985;28;20470;-81
2024/04/02 09:39:44;;;;;;;3.63;1.90;;;538.00;1715.20;;;;;;5036962;28;20135;-83
2024/04/02 09:42:11;;;;;;;3.53;1.45;;;537.60;1740.80;;;;;;5050685;28;20037;-83
2024/04/02 09:44:40;;;;;;;2.67;1.65;;;512.60;1715.20;;;;;;5036242;28;20030;-83
2024/04/02 09:47:06;;;;;;;2.75;1.50;;;512.00;1766.40;;;;;;5038073;28;20112;-81
2024/04/02 09:49:35;;;;;;;2.42;1.80;;;487.30;1792.00;;;;;;5036859;28;20013;-80
2024/04/02 09:52:03;;;;;;;4.05;1.48;;;486.40;1817.60;;;;;;5035892;28;20039;-80
2024/04/02 09:54:41;;;;;;;1.63;1.30;;;486.50;1817.60;;;;;;5042489;28;20625;-78
2024/04/02 09:57:10;;;;;;;2.22;1.30;;;461.50;1868.80;;;;;;5040217;28;20027;-79
2024/04/02 09:59:41;;;;;;;3.95;1.40;;;461.10;1894.40;;;;;;5036943;28;20021;-78
2024/04/02 10:02:28;;;;;;;3.30;1.30;;;436.10;1894.40;;;;;;5047741;28;20025;-80
2024/04/02 10:04:55;;;;;;;4.15;1.60;;;435.90;1920.00;;;;;;5052875;28;20028;-77
2024/04/02 10:07:29;;;;;;;3.53;1.65;;;435.70;1996.80;;;;;;5052726;28;20060;-78
2024/04/02 10:10:00;;;;;;;1.75;1.27;;;435.50;2099.20;;;;;;5054670;28;20032;-76
2024/04/02 10:12:33;;;;;;;3.70;1.50;;;435.20;2124.80;;;;;;5054923;28;20104;-79
2024/04/02 10:15:12;;;;;;;2.83;1.75;;;410.40;2176.00;;;;;;5054698;28;20489;-81
2024/04/02 10:17:38;;;;;;;3.33;1.73;;;410.30;2227.20;;;;;;5054891;28;20075;-81
2024/04/02 10:23:21;;;;;;;2.63;1.48;;;410.10;2304.00;;;;;;5054621;28;20032;-83
2024/04/02 10:25:50;;;;;;;5.63;1.67;;;410.10;2355.20;;;;;;5054511;28;20020;-82
2024/04/02 10:28:26;;;;;;;2.72;1.52;;;409.90;2355.20;;;;;;5047245;28;20037;-78
2024/04/02 10:30:52;;;;;;;5.68;2.70;;;410.20;2355.20;;;;;;5061792;28;20030;-83
2024/04/02 10:33:19;;;;;;;5.72;1.92;;;410.50;2355.20;;;;;;5046240;28;20013;-80
2024/04/02 10:35:46;;;;;;;2.50;1.50;;;435.40;2355.20;;;;;;5043862;28;20048;-82
2024/04/02 10:38:12;;;;;;;3.00;1.60;;;435.40;2355.20;;;;;;5040202;28;20393;-81
2024/04/02 10:40:38;;;;;;;2.53;1.42;;;435.60;2355.20;;;;;;5051046;28;20044;-83
2024/04/02 10:43:04;;;;;;;2.08;1.48;;;435.60;2355.20;;;;;;5045807;28;20379;-83
2024/04/02 10:45:30;;;;;;;2.53;1.40;;;435.50;2355.20;;;;;;5042245;28;20383;-82
2024/04/02 10:47:56;;;;;;;3.13;1.70;;;435.70;2355.20;;;;;;5050172;28;20434;-84
2024/04/02 10:50:24;;;;;;;1.85;1.23;;;435.90;2355.20;;;;;;5040669;28;20422;-81
2024/04/02 10:52:51;;;;;;;1.90;1.35;;;461.10;2380.80;;;;;;5049066;28;20035;-82
2024/04/02 10:55:17;;;;;;;2.63;1.58;;;461.40;2380.80;;;;;;5050578;28;20024;-81
2024/04/02 10:57:43;;;;;;;1.10;1.00;;;461.00;2380.80;;;;;;5050364;28;20104;-82
2024/04/02 11:00:11;;;;;;;3.33;1.42;;;460.80;2380.80;;;;;;5050739;28;20080;-79
2024/04/02 11:02:38;;;;;;;2.75;1.50;;;435.80;2355.20;;;;;;5050456;28;20053;-81
2024/04/02 11:05:06;;;;;;;2.80;1.77;;;435.60;2355.20;;;;;;5049754;28;20048;-83
2024/04/02 11:07:33;;;;;;;2.90;1.88;;;435.60;2355.20;;;;;;5049833;28;20431;-79
2024/04/02 11:10:00;;;;;;;2.75;1.50;;;435.60;2355.20;;;;;;5048741;28;20033;-81
2024/04/02 11:12:26;;;;;;;2.63;1.77;;;435.90;2355.20;;;;;;5050087;28;20037;-82
2024/04/02 11:14:53;;;;;;;2.72;1.67;;;436.00;2355.20;;;;;;5050213;28;20048;-81
2024/04/02 11:17:20;;;;;;;2.05;1.58;;;436.00;2355.20;;;;;;5050105;28;20159;-82
2024/04/02 11:19:46;;;;;;;2.88;1.80;;;436.00;2355.20;;;;;;5049862;28;20024;-82
2024/04/02 11:25:08;;;;;;;2.20;1.60;;;461.00;2380.80;;;;;;5050327;28;20040;-83
2024/04/02 11:27:34;;;;;;;2.22;1.58;;;460.80;2380.80;;;;;;5049453;28;20033;-83
2024/04/02 11:30:00;;;;;;;3.53;1.80;;;460.80;2380.80;;;;;;5049839;28;20055;-80
2024/04/02 11:32:27;;;;;;;5.85;3.22;;;460.90;2380.80;;;;;;5042369;28;20025;-82
2024/04/02 11:35:03;;;;;;;3.03;1.85;;;461.00;2380.80;;;;;;5035860;28;20026;-84
2024/04/02 11:37:30;;;;;;;2.63;1.60;;;461.00;2304.00;;;;;;5040998;28;20048;-81
2024/04/02 11:39:57;;;;;;;2.13;1.30;;;461.10;2380.80;;;;;;5036422;28;20045;-83
2024/04/02 11:42:24;;;;;;;3.10;1.40;;;461.10;2329.60;;;;;;5039500;28;20102;-83
2024/04/02 11:44:52;;;;;;;2.35;1.50;;;461.30;2380.80;;;;;;5036684;28;20033;-83
2024/04/02 11:47:18;;;;;;;2.70;1.60;;;461.50;2329.60;;;;;;5046063;28;20478;-82
2024/04/02 11:49:44;;;;;;;2.97;1.40;;;461.50;2355.20;;;;;;5041267;28;20475;-82
2024/04/02 11:52:10;;;;;;;2.90;2.03;;;461.60;2304.00;;;;;;5040255;28;20032;-83
2024/04/02 11:54:37;;;;;;;2.05;1.40;;;461.70;2278.40;;;;;;5043568;28;20082;-75
2024/04/02 12:02:40;;;;;;;3.25;2.03;;;486.60;2176.00;;;;;;5048682;28;20445;-78
2024/04/02 12:05:06;;;;;;;3.15;1.50;;;486.60;2176.00;;;;;;5048467;28;20032;-78
2024/04/02 12:07:32;;;;;;;2.45;1.67;;;486.70;2176.00;;;;;;5048283;28;20051;-78
2024/04/02 12:09:59;;;;;;;1.55;1.10;;;486.50;2176.00;;;;;;5049244;28;20103;-81
2024/04/02 12:12:29;;;;;;;5.88;1.35;;;486.80;2150.40;;;;;;5048214;28;20040;-79
2024/04/02 12:14:56;;;;;;;2.33;1.05;;;486.70;1868.80;;;;;;5048740;28;20486;-78
2024/04/02 12:17:23;;;;;;;2.60;1.20;;;486.70;1894.40;;;;;;5049146;28;20036;-80
2024/04/02 12:19:57;;;;;;;2.53;1.48;;;486.90;1894.40;;;;;;5052474;28;20021;-77
2024/04/02 12:22:24;;;;;;;2.63;1.30;;;487.20;1817.60;;;;;;5047913;28;20486;-83
2024/04/02 12:24:50;;;;;;;1.15;0.77;;;512.30;1792.00;;;;;;5044188;28;20067;-79
2024/04/02 12:27:16;;;;;;;2.20;1.13;;;512.10;1766.40;;;;;;5049148;28;20029;-80
2024/04/02 12:29:43;;;;;;;2.03;1.25;;;512.10;1715.20;;;;;;5051157;28;20423;-82